Wetterdaten: Woche 19.08.13 - 25.08.13 (KW34)
Datum Zeit Temp. A. Feuchte A. Luftdruck Regen Wind Richtung Taupunkt Windchill Windben
19.08.2013 00:00 15,3 C 93 % 1013,0 hPa 0,0 l/m 0,4 km/h (0 Bft) S-SW 14,1 C 15,3 C 2,0 km/h (1 Bft)
19.08.2013 01:00 14,7 C 94 % 1013,2 hPa 0,0 l/m 0,0 km/h (0 Bft) N 13,8 C 14,7 C 0,0 km/h (0 Bft)
19.08.2013 02:00 14,0 C 94 % 1013,2 hPa 0,0 l/m 0,0 km/h (0 Bft) N 13,2 C 14,0 C 0,0 km/h (0 Bft)
19.08.2013 03:00 13,6 C 95 % 1013,5 hPa 0,0 l/m 0,0 km/h (0 Bft) N 12,8 C 13,6 C 0,0 km/h (0 Bft)
19.08.2013 04:00 14,1 C 96 % 1013,4 hPa 0,0 l/m 0,0 km/h (0 Bft) N 13,4 C 14,1 C 0,0 km/h (0 Bft)
19.08.2013 05:00 14,5 C 96 % 1013,1 hPa 0,0 l/m 0,0 km/h (0 Bft) N 13,9 C 14,5 C 0,0 km/h (0 Bft)
19.08.2013 06:00 14,6 C 96 % 1013,0 hPa 0,0 l/m 0,0 km/h (0 Bft) N 14,0 C 14,6 C 0,0 km/h (0 Bft)
19.08.2013 07:00 15,0 C 96 % 1013,1 hPa 0,0 l/m 0,0 km/h (0 Bft) N 14,3 C 15,0 C 0,0 km/h (0 Bft)
19.08.2013 08:00 15,5 C 96 % 1013,0 hPa 0,2 l/m 0,5 km/h (0 Bft) O-NO 14,8 C 15,5 C 2,1 km/h (1 Bft)
19.08.2013 09:00 16,0 C 96 % 1012,9 hPa 0,2 l/m 1,2 km/h (1 Bft) O-NO 15,4 C 16,0 C 3,9 km/h (1 Bft)
19.08.2013 10:00 16,2 C 96 % 1013,6 hPa 7,0 l/m 1,9 km/h (1 Bft) O-SO 15,6 C 16,1 C 4,8 km/h (1 Bft)
19.08.2013 11:00 16,3 C 96 % 1012,6 hPa 4,8 l/m 4,4 km/h (1 Bft) O 15,6 C 16,2 C 10,3 km/h (2 Bft)
19.08.2013 12:00 18,0 C 95 % 1012,4 hPa 0,2 l/m 4,3 km/h (1 Bft) S-SO 17,2 C 17,7 C 10,9 km/h (2 Bft)
19.08.2013 13:00 19,3 C 91 % 1012,7 hPa 0,0 l/m 2,2 km/h (1 Bft) O 17,8 C 19,3 C 6,8 km/h (2 Bft)
19.08.2013 14:00 19,4 C 84 % 1012,9 hPa 2,2 l/m 2,3 km/h (1 Bft) S-SW 16,6 C 19,4 C 7,5 km/h (2 Bft)
19.08.2013 15:00 16,8 C 93 % 1013,3 hPa 1,4 l/m 4,8 km/h (1 Bft) N 15,6 C 16,7 C 8,4 km/h (2 Bft)
19.08.2013 16:00 17,1 C 94 % 1013,4 hPa 0,0 l/m 5,1 km/h (1 Bft) N-NO 16,0 C 17,0 C 8,9 km/h (2 Bft)
19.08.2013 17:00 17,8 C 91 % 1013,6 hPa 0,0 l/m 4,4 km/h (1 Bft) N-NO 16,4 C 17,7 C 7,3 km/h (2 Bft)
19.08.2013 18:00 18,0 C 91 % 1014,2 hPa 0,0 l/m 5,4 km/h (2 Bft) N-NO 16,4 C 17,9 C 9,3 km/h (2 Bft)
19.08.2013 19:00 17,2 C 91 % 1014,9 hPa 0,0 l/m 10,3 km/h (2 Bft) N-NO 15,6 C 15,6 C 16,5 km/h (3 Bft)
19.08.2013 20:00 14,7 C 92 % 1016,4 hPa 0,0 l/m 13,7 km/h (3 Bft) N 13,3 C 11,5 C 20,9 km/h (4 Bft)
19.08.2013 21:00 14,5 C 93 % 1017,8 hPa 0,4 l/m 6,3 km/h (2 Bft) N-NW 13,3 C 14,1 C 10,9 km/h (2 Bft)
19.08.2013 22:00 13,9 C 91 % 1019,4 hPa 0,0 l/m 3,2 km/h (1 Bft) NW 12,5 C 13,8 C 7,9 km/h (2 Bft)
19.08.2013 23:00 13,2 C 92 % 1020,7 hPa 0,0 l/m 2,4 km/h (1 Bft) NW 12,0 C 13,2 C 7,1 km/h (2 Bft)
20.08.2013 00:00 13,2 C 93 % 1021,6 hPa 0,0 l/m 1,1 km/h (1 Bft) W-NW 12,1 C 13,2 C 4,8 km/h (1 Bft)
20.08.2013 01:00 13,3 C 94 % 1022,1 hPa 0,0 l/m 1,0 km/h (0 Bft) W 12,3 C 13,3 C 3,9 km/h (1 Bft)
20.08.2013 02:00 13,0 C 94 % 1022,4 hPa 0,0 l/m 1,8 km/h (1 Bft) W-NW 12,0 C 13,0 C 7,1 km/h (2 Bft)
20.08.2013 03:00 12,9 C 94 % 1022,9 hPa 0,0 l/m 1,4 km/h (1 Bft) W 12,0 C 12,9 C 6,4 km/h (2 Bft)
20.08.2013 04:00 12,9 C 95 % 1023,2 hPa 0,0 l/m 0,7 km/h (0 Bft) NW 12,0 C 12,9 C 3,6 km/h (1 Bft)
20.08.2013 05:00 12,7 C 95 % 1023,5 hPa 0,0 l/m 0,1 km/h (0 Bft) W-SW 11,8 C 12,7 C 0,9 km/h (0 Bft)
20.08.2013 06:00 12,5 C 95 % 1024,2 hPa 0,0 l/m 1,6 km/h (1 Bft) W 11,7 C 12,5 C 5,1 km/h (1 Bft)
20.08.2013 07:00 12,9 C 95 % 1024,9 hPa 0,0 l/m 1,0 km/h (0 Bft) W 12,1 C 12,9 C 4,5 km/h (1 Bft)
20.08.2013 08:00 14,0 C 94 % 1025,6 hPa 0,0 l/m 0,9 km/h (0 Bft) NW 13,1 C 14,0 C 3,1 km/h (1 Bft)
20.08.2013 09:00 15,4 C 90 % 1026,1 hPa 0,0 l/m 2,5 km/h (1 Bft) W-SW 13,8 C 15,4 C 6,9 km/h (2 Bft)
20.08.2013 10:00 17,4 C 82 % 1026,5 hPa 0,0 l/m 4,2 km/h (1 Bft) NW 14,2 C 17,3 C 10,6 km/h (2 Bft)
20.08.2013 11:00 18,3 C 72 % 1026,7 hPa 0,0 l/m 4,0 km/h (1 Bft) W-NW 13,2 C 18,3 C 9,8 km/h (2 Bft)
20.08.2013 12:00 18,4 C 70 % 1026,9 hPa 0,0 l/m 4,6 km/h (1 Bft) W 12,7 C 18,4 C 10,6 km/h (2 Bft)
20.08.2013 13:00 18,3 C 70 % 1027,0 hPa 0,0 l/m 3,5 km/h (1 Bft) W-SW 12,7 C 18,3 C 8,9 km/h (2 Bft)
20.08.2013 14:00 18,3 C 71 % 1027,1 hPa 0,0 l/m 4,3 km/h (1 Bft) W-SW 13,0 C 18,3 C 12,4 km/h (2 Bft)
20.08.2013 15:00 18,6 C 69 % 1027,2 hPa 0,0 l/m 3,7 km/h (1 Bft) W 12,7 C 18,6 C 9,7 km/h (2 Bft)
20.08.2013 16:00 18,0 C 70 % 1027,4 hPa 0,0 l/m 3,4 km/h (1 Bft) W-NW 12,4 C 18,0 C 9,1 km/h (2 Bft)
20.08.2013 17:00 18,4 C 70 % 1027,3 hPa 0,0 l/m 3,4 km/h (1 Bft) W-NW 12,7 C 18,4 C 7,9 km/h (2 Bft)
20.08.2013 18:00 18,0 C 70 % 1027,3 hPa 0,0 l/m 1,7 km/h (1 Bft) W 12,4 C 18,0 C 5,9 km/h (2 Bft)
20.08.2013 19:00 17,3 C 74 % 1027,5 hPa 0,0 l/m 0,7 km/h (0 Bft) W-SW 12,6 C 17,3 C 2,4 km/h (1 Bft)
20.08.2013 20:00 16,0 C 80 % 1027,6 hPa 0,0 l/m 0,0 km/h (0 Bft) N 12,5 C 16,0 C 0,0 km/h (0 Bft)
20.08.2013 21:00 14,0 C 87 % 1027,7 hPa 0,0 l/m 0,0 km/h (0 Bft) N 11,9 C 14,0 C 0,0 km/h (0 Bft)
20.08.2013 22:00 12,2 C 92 % 1027,9 hPa 0,0 l/m 0,0 km/h (0 Bft) N 10,9 C 12,2 C 0,0 km/h (0 Bft)
20.08.2013 23:00 10,9 C 94 % 1028,0 hPa 0,0 l/m 0,0 km/h (0 Bft) N 9,9 C 10,9 C 0,0 km/h (0 Bft)
21.08.2013 00:00 9,8 C 94 % 1028,0 hPa 0,0 l/m 0,0 km/h (0 Bft) N 8,9 C 9,8 C 0,0 km/h (0 Bft)
21.08.2013 01:00 9,4 C 95 % 1028,2 hPa 0,0 l/m 0,0 km/h (0 Bft) N 8,6 C 9,4 C 0,0 km/h (0 Bft)
21.08.2013 02:00 9,3 C 95 % 1027,9 hPa 0,0 l/m 0,0 km/h (0 Bft) N 8,5 C 9,3 C 0,0 km/h (0 Bft)
21.08.2013 03:00 9,6 C 96 % 1027,8 hPa 0,0 l/m 0,0 km/h (0 Bft) N 8,9 C 9,6 C 0,0 km/h (0 Bft)
21.08.2013 04:00 9,6 C 96 % 1027,5 hPa 0,0 l/m 0,0 km/h (0 Bft) N 9,0 C 9,6 C 0,0 km/h (0 Bft)
21.08.2013 05:00 8,3 C 95 % 1027,3 hPa 0,0 l/m 0,0 km/h (0 Bft) N 7,6 C 8,3 C 0,0 km/h (0 Bft)
21.08.2013 06:00 7,4 C 96 % 1027,5 hPa 0,0 l/m 0,0 km/h (0 Bft) N 6,8 C 7,4 C 0,0 km/h (0 Bft)
21.08.2013 07:00 7,6 C 96 % 1027,6 hPa 0,0 l/m 0,0 km/h (0 Bft) N 7,0 C 7,6 C 0,0 km/h (0 Bft)
21.08.2013 08:00 12,3 C 96 % 1027,6 hPa 0,0 l/m 0,0 km/h (0 Bft) N 11,6 C 12,3 C 0,0 km/h (0 Bft)
21.08.2013 09:00 15,7 C 85 % 1027,6 hPa 0,0 l/m 0,5 km/h (0 Bft) S-SO 13,2 C 15,7 C 2,0 km/h (1 Bft)
21.08.2013 10:00 18,1 C 73 % 1027,5 hPa 0,0 l/m 2,0 km/h (1 Bft) SW 13,2 C 18,1 C 6,0 km/h (2 Bft)
21.08.2013 11:00 19,5 C 63 % 1027,2 hPa 0,0 l/m 3,3 km/h (1 Bft) SW 12,1 C 19,5 C 8,6 km/h (2 Bft)
21.08.2013 12:00 20,5 C 56 % 1026,6 hPa 0,0 l/m 2,8 km/h (1 Bft) SW 11,4 C 20,5 C 7,6 km/h (2 Bft)
21.08.2013 13:00 20,9 C 52 % 1026,2 hPa 0,0 l/m 2,4 km/h (1 Bft) S-SW 10,7 C 20,9 C 6,0 km/h (2 Bft)
21.08.2013 14:00 21,4 C 51 % 1025,7 hPa 0,0 l/m 2,6 km/h (1 Bft) N 10,8 C 21,4 C 6,9 km/h (2 Bft)
21.08.2013 15:00 21,5 C 50 % 1025,2 hPa 0,0 l/m 3,3 km/h (1 Bft) N-NW 10,5 C 21,5 C 7,8 km/h (2 Bft)
21.08.2013 16:00 21,4 C 49 % 1024,7 hPa 0,0 l/m 1,8 km/h (1 Bft) O-SO 10,2 C 21,4 C 4,7 km/h (1 Bft)
21.08.2013 17:00 22,1 C 47 % 1024,2 hPa 0,0 l/m 1,3 km/h (1 Bft) O 10,3 C 22,1 C 3,9 km/h (1 Bft)
21.08.2013 18:00 22,0 C 47 % 1023,9 hPa 0,0 l/m 1,3 km/h (1 Bft) W-SW 10,0 C 22,0 C 4,3 km/h (1 Bft)
21.08.2013 19:00 20,3 C 60 % 1023,6 hPa 0,0 l/m 0,0 km/h (0 Bft) N 12,0 C 20,3 C 0,1 km/h (0 Bft)
21.08.2013 20:00 16,7 C 81 % 1023,7 hPa 0,0 l/m 0,0 km/h (0 Bft) N 13,4 C 16,7 C 0,0 km/h (0 Bft)
21.08.2013 21:00 14,5 C 87 % 1023,7 hPa 0,0 l/m 0,0 km/h (0 Bft) N 12,4 C 14,5 C 0,0 km/h (0 Bft)
21.08.2013 22:00 12,8 C 91 % 1023,4 hPa 0,0 l/m 0,0 km/h (0 Bft) N 11,3 C 12,8 C 0,0 km/h (0 Bft)
21.08.2013 23:00 11,9 C 93 % 1023,2 hPa 0,0 l/m 0,0 km/h (0 Bft) N 10,7 C 11,9 C 0,0 km/h (0 Bft)
22.08.2013 00:00 11,3 C 94 % 1023,1 hPa 0,0 l/m 0,0 km/h (0 Bft) N 10,4 C 11,3 C 0,0 km/h (0 Bft)
22.08.2013 01:00 10,9 C 94 % 1022,9 hPa 0,0 l/m 0,0 km/h (0 Bft) N 10,0 C 10,9 C 0,0 km/h (0 Bft)
22.08.2013 02:00 10,3 C 94 % 1022,6 hPa 0,0 l/m 0,0 km/h (0 Bft) N 9,5 C 10,3 C 0,0 km/h (0 Bft)
22.08.2013 03:00 9,2 C 95 % 1022,3 hPa 0,0 l/m 0,0 km/h (0 Bft) N 8,4 C 9,2 C 0,0 km/h (0 Bft)
22.08.2013 04:00 9,4 C 95 % 1021,9 hPa 0,0 l/m 0,0 km/h (0 Bft) N 8,6 C 9,4 C 0,0 km/h (0 Bft)
22.08.2013 05:00 10,1 C 95 % 1021,7 hPa 0,0 l/m 0,0 km/h (0 Bft) N 9,3 C 10,1 C 0,0 km/h (0 Bft)
22.08.2013 06:00 10,5 C 95 % 1021,5 hPa 0,0 l/m 0,0 km/h (0 Bft) N 9,7 C 10,5 C 0,0 km/h (0 Bft)
22.08.2013 07:00 11,5 C 95 % 1021,4 hPa 0,0 l/m 0,0 km/h (0 Bft) N 10,7 C 11,5 C 0,0 km/h (0 Bft)
22.08.2013 08:00 14,7 C 84 % 1021,6 hPa 0,0 l/m 0,1 km/h (0 Bft) O 11,9 C 14,7 C 0,4 km/h (0 Bft)
22.08.2013 09:00 18,2 C 70 % 1021,6 hPa 0,0 l/m 1,6 km/h (1 Bft) O-SO 12,5 C 18,2 C 4,3 km/h (1 Bft)
22.08.2013 10:00 20,7 C 59 % 1021,5 hPa 0,0 l/m 3,3 km/h (1 Bft) O 12,3 C 20,7 C 8,3 km/h (2 Bft)
22.08.2013 11:00 21,9 C 54 % 1021,3 hPa 0,0 l/m 4,7 km/h (1 Bft) O 12,0 C 21,9 C 10,2 km/h (2 Bft)
22.08.2013 12:00 22,5 C 50 % 1021,1 hPa 0,0 l/m 3,6 km/h (1 Bft) O-NO 11,7 C 22,5 C 9,7 km/h (2 Bft)
22.08.2013 13:00 22,8 C 50 % 1020,9 hPa 0,0 l/m 3,4 km/h (1 Bft) SW 11,7 C 22,8 C 8,8 km/h (2 Bft)
22.08.2013 14:00 22,9 C 48 % 1020,8 hPa 0,0 l/m 3,3 km/h (1 Bft) NO 11,3 C 22,9 C 7,9 km/h (2 Bft)
22.08.2013 15:00 24,0 C 45 % 1020,4 hPa 0,0 l/m 3,0 km/h (1 Bft) SW 11,4 C 24,0 C 7,1 km/h (2 Bft)
22.08.2013 16:00 24,2 C 44 % 1020,1 hPa 0,0 l/m 2,8 km/h (1 Bft) O 11,1 C 24,2 C 7,5 km/h (2 Bft)
22.08.2013 17:00 24,1 C 42 % 1019,9 hPa 0,0 l/m 2,0 km/h (1 Bft) O-SO 10,2 C 24,1 C 5,3 km/h (1 Bft)
22.08.2013 18:00 23,5 C 44 % 1019,7 hPa 0,0 l/m 2,1 km/h (1 Bft) SO 10,6 C 23,5 C 5,5 km/h (2 Bft)
22.08.2013 19:00 21,7 C 53 % 1019,7 hPa 0,0 l/m 0,9 km/h (0 Bft) NO 11,5 C 21,7 C 2,3 km/h (1 Bft)
22.08.2013 20:00 18,0 C 68 % 1019,8 hPa 0,0 l/m 0,0 km/h (0 Bft) N 11,9 C 18,0 C 0,0 km/h (0 Bft)
22.08.2013 21:00 17,1 C 70 % 1019,9 hPa 0,0 l/m 1,4 km/h (1 Bft) O-NO 11,5 C 17,1 C 3,9 km/h (1 Bft)
22.08.2013 22:00 17,2 C 68 % 1020,2 hPa 0,0 l/m 0,8 km/h (0 Bft) O 11,2 C 17,2 C 2,5 km/h (1 Bft)
22.08.2013 23:00 16,0 C 72 % 1020,3 hPa 0,0 l/m 0,3 km/h (0 Bft) N 11,0 C 16,0 C 1,6 km/h (1 Bft)
23.08.2013 00:00 15,1 C 77 % 1020,3 hPa 0,0 l/m 0,0 km/h (0 Bft) N 11,0 C 15,1 C 0,0 km/h (0 Bft)
23.08.2013 01:00 14,3 C 81 % 1020,0 hPa 0,0 l/m 0,0 km/h (0 Bft) N 11,1 C 14,3 C 0,0 km/h (0 Bft)
23.08.2013 02:00 12,5 C 87 % 1020,1 hPa 0,0 l/m 0,0 km/h (0 Bft) N 10,5 C 12,5 C 0,0 km/h (0 Bft)
23.08.2013 03:00 11,5 C 90 % 1020,2 hPa 0,0 l/m 0,0 km/h (0 Bft) N 10,0 C 11,5 C 0,0 km/h (0 Bft)
23.08.2013 04:00 12,1 C 90 % 1020,1 hPa 0,0 l/m 0,0 km/h (0 Bft) N 10,5 C 12,1 C 0,0 km/h (0 Bft)
23.08.2013 05:00 12,8 C 89 % 1020,0 hPa 0,0 l/m 0,0 km/h (0 Bft) N 11,1 C 12,8 C 0,0 km/h (0 Bft)
23.08.2013 06:00 13,0 C 88 % 1020,0 hPa 0,0 l/m 0,2 km/h (0 Bft) N 11,1 C 13,0 C 1,1 km/h (0 Bft)
23.08.2013 07:00 13,7 C 89 % 1020,2 hPa 0,0 l/m 1,1 km/h (0 Bft) NO 11,8 C 13,7 C 2,0 km/h (1 Bft)
23.08.2013 08:00 15,8 C 83 % 1020,3 hPa 0,0 l/m 3,1 km/h (1 Bft) NO 12,8 C 15,8 C 5,1 km/h (1 Bft)
23.08.2013 09:00 17,8 C 75 % 1020,3 hPa 0,0 l/m 3,6 km/h (1 Bft) O-NO 13,2 C 17,8 C 6,9 km/h (2 Bft)
23.08.2013 10:00 20,1 C 67 % 1020,4 hPa 0,0 l/m 4,7 km/h (1 Bft) NO 13,7 C 20,1 C 9,0 km/h (2 Bft)
23.08.2013 11:00 21,3 C 62 % 1020,3 hPa 0,0 l/m 7,1 km/h (2 Bft) O-SO 13,8 C 21,0 C 13,4 km/h (3 Bft)
23.08.2013 12:00 22,1 C 56 % 1020,0 hPa 0,0 l/m 7,1 km/h (2 Bft) O-NO 12,9 C 21,8 C 14,9 km/h (3 Bft)
23.08.2013 13:00 22,5 C 55 % 1019,9 hPa 0,0 l/m 7,2 km/h (2 Bft) O 12,9 C 22,1 C 16,9 km/h (3 Bft)
23.08.2013 14:00 22,8 C 52 % 1019,6 hPa 0,0 l/m 7,1 km/h (2 Bft) S-SO 12,5 C 22,6 C 16,0 km/h (3 Bft)
23.08.2013 15:00 23,4 C 50 % 1019,2 hPa 0,0 l/m 5,6 km/h (2 Bft) S-SO 12,4 C 23,4 C 13,7 km/h (3 Bft)
23.08.2013 16:00 23,6 C 49 % 1018,9 hPa 0,0 l/m 5,7 km/h (2 Bft) O-SO 12,2 C 23,5 C 14,2 km/h (3 Bft)
23.08.2013 17:00 23,1 C 49 % 1018,8 hPa 0,0 l/m 4,8 km/h (1 Bft) S-SO 11,7 C 23,1 C 11,5 km/h (2 Bft)
23.08.2013 18:00 22,4 C 50 % 1018,6 hPa 0,0 l/m 2,7 km/h (1 Bft) SO 11,6 C 22,4 C 7,2 km/h (2 Bft)
23.08.2013 19:00 20,6 C 58 % 1018,5 hPa 0,0 l/m 0,1 km/h (0 Bft) N 11,8 C 20,6 C 0,5 km/h (0 Bft)
23.08.2013 20:00 17,2 C 74 % 1018,6 hPa 0,0 l/m 0,0 km/h (0 Bft) N 12,5 C 17,2 C 0,0 km/h (0 Bft)
23.08.2013 21:00 16,8 C 75 % 1018,9 hPa 0,0 l/m 0,0 km/h (0 Bft) N 12,4 C 16,8 C 0,1 km/h (0 Bft)
23.08.2013 22:00 16,6 C 77 % 1019,0 hPa 0,0 l/m 0,0 km/h (0 Bft) N 12,6 C 16,6 C 0,0 km/h (0 Bft)
23.08.2013 23:00 17,0 C 74 % 1019,0 hPa 0,0 l/m 2,1 km/h (1 Bft) O 12,3 C 17,0 C 5,5 km/h (2 Bft)
24.08.2013 00:00 16,9 C 74 % 1019,1 hPa 0,0 l/m 5,1 km/h (1 Bft) O-NO 12,3 C 16,8 C 11,0 km/h (2 Bft)
24.08.2013 01:00 16,3 C 77 % 1019,2 hPa 0,0 l/m 4,9 km/h (1 Bft) O-NO 12,2 C 16,3 C 11,7 km/h (2 Bft)
24.08.2013 02:00 15,0 C 80 % 1018,8 hPa 0,0 l/m 3,3 km/h (1 Bft) NO 11,6 C 15,0 C 6,8 km/h (2 Bft)
24.08.2013 03:00 13,7 C 83 % 1018,5 hPa 0,0 l/m 3,3 km/h (1 Bft) NO 11,0 C 13,7 C 7,6 km/h (2 Bft)
24.08.2013 04:00 12,7 C 86 % 1018,2 hPa 0,0 l/m 2,9 km/h (1 Bft) O-NO 10,3 C 12,7 C 6,0 km/h (2 Bft)
24.08.2013 05:00 11,4 C 88 % 1018,1 hPa 0,0 l/m 1,6 km/h (1 Bft) NO 9,5 C 11,4 C 3,7 km/h (1 Bft)
24.08.2013 06:00 11,1 C 89 % 1017,8 hPa 0,0 l/m 2,0 km/h (1 Bft) O-NO 9,4 C 11,1 C 4,4 km/h (1 Bft)
24.08.2013 07:00 12,3 C 87 % 1017,6 hPa 0,0 l/m 3,0 km/h (1 Bft) O-NO 10,2 C 12,3 C 6,8 km/h (2 Bft)
24.08.2013 08:00 14,7 C 82 % 1017,4 hPa 0,0 l/m 5,1 km/h (1 Bft) O 11,6 C 14,7 C 10,5 km/h (2 Bft)
24.08.2013 09:00 17,4 C 75 % 1017,1 hPa 0,0 l/m 5,6 km/h (2 Bft) O 12,9 C 17,4 C 10,8 km/h (2 Bft)
24.08.2013 10:00 20,0 C 67 % 1016,7 hPa 0,0 l/m 7,0 km/h (2 Bft) O 13,7 C 19,7 C 13,7 km/h (3 Bft)
24.08.2013 11:00 21,8 C 59 % 1016,3 hPa 0,0 l/m 9,5 km/h (2 Bft) O-NO 13,5 C 20,8 C 19,2 km/h (3 Bft)
24.08.2013 12:00 22,9 C 53 % 1015,7 hPa 0,0 l/m 9,3 km/h (2 Bft) O 12,8 C 22,0 C 20,5 km/h (4 Bft)
24.08.2013 13:00 24,3 C 45 % 1015,1 hPa 0,0 l/m 9,5 km/h (2 Bft) O-SO 11,8 C 23,6 C 21,8 km/h (4 Bft)
24.08.2013 14:00 24,4 C 45 % 1014,5 hPa 0,0 l/m 9,2 km/h (2 Bft) O-SO 11,6 C 23,7 C 20,1 km/h (4 Bft)
24.08.2013 15:00 24,8 C 44 % 1014,0 hPa 0,0 l/m 9,2 km/h (2 Bft) O 11,5 C 24,1 C 20,8 km/h (4 Bft)
24.08.2013 16:00 24,7 C 43 % 1013,5 hPa 0,0 l/m 8,3 km/h (2 Bft) O-SO 11,2 C 24,3 C 19,2 km/h (3 Bft)
24.08.2013 17:00 24,5 C 44 % 1013,1 hPa 0,0 l/m 8,1 km/h (2 Bft) SO 11,4 C 24,1 C 17,2 km/h (3 Bft)
24.08.2013 18:00 23,8 C 46 % 1012,9 hPa 0,0 l/m 8,5 km/h (2 Bft) O 11,4 C 23,2 C 17,2 km/h (3 Bft)
24.08.2013 19:00 22,4 C 50 % 1012,8 hPa 0,0 l/m 5,6 km/h (2 Bft) O 11,5 C 22,4 C 11,2 km/h (2 Bft)
24.08.2013 20:00 20,3 C 56 % 1012,8 hPa 0,0 l/m 4,2 km/h (1 Bft) O-NO 11,3 C 20,3 C 8,2 km/h (2 Bft)
24.08.2013 21:00 18,9 C 60 % 1013,0 hPa 0,0 l/m 5,2 km/h (1 Bft) NO 11,0 C 18,9 C 11,1 km/h (2 Bft)
24.08.2013 22:00 18,6 C 61 % 1012,9 hPa 0,0 l/m 6,1 km/h (2 Bft) O-NO 10,9 C 18,5 C 12,8 km/h (3 Bft)
24.08.2013 23:00 18,1 C 62 % 1013,0 hPa 0,0 l/m 5,5 km/h (2 Bft) O 10,8 C 18,0 C 11,2 km/h (2 Bft)
25.08.2013 00:00 17,2 C 67 % 1013,1 hPa 0,0 l/m 4,2 km/h (1 Bft) O-NO 10,9 C 17,2 C 9,1 km/h (2 Bft)
25.08.2013 01:00 16,6 C 70 % 1013,0 hPa 0,0 l/m 4,1 km/h (1 Bft) NO 11,1 C 16,6 C 9,5 km/h (2 Bft)
25.08.2013 02:00 15,6 C 74 % 1012,9 hPa 0,0 l/m 3,6 km/h (1 Bft) NO 11,0 C 15,6 C 7,3 km/h (2 Bft)
25.08.2013 03:00 14,9 C 78 % 1012,7 hPa 0,0 l/m 3,6 km/h (1 Bft) NO 11,0 C 14,9 C 8,2 km/h (2 Bft)
25.08.2013 04:00 14,5 C 79 % 1012,6 hPa 0,0 l/m 4,4 km/h (1 Bft) NO 10,9 C 14,5 C 9,8 km/h (2 Bft)
25.08.2013 05:00 14,0 C 81 % 1012,3 hPa 0,0 l/m 4,8 km/h (1 Bft) NO 10,8 C 14,0 C 10,2 km/h (2 Bft)
25.08.2013 06:00 13,5 C 83 % 1012,5 hPa 0,0 l/m 4,9 km/h (1 Bft) NO 10,7 C 13,5 C 10,5 km/h (2 Bft)
25.08.2013 07:00 14,2 C 81 % 1012,7 hPa 0,0 l/m 4,4 km/h (1 Bft) O-NO 10,9 C 14,2 C 10,6 km/h (2 Bft)
25.08.2013 08:00 16,2 C 75 % 1012,9 hPa 0,0 l/m 5,3 km/h (1 Bft) O-NO 11,7 C 16,2 C 13,2 km/h (3 Bft)
25.08.2013 09:00 18,4 C 68 % 1013,2 hPa 0,0 l/m 7,6 km/h (2 Bft) O-NO 12,3 C 17,8 C 15,0 km/h (3 Bft)
25.08.2013 10:00 20,3 C 62 % 1013,3 hPa 0,0 l/m 8,2 km/h (2 Bft) O 12,8 C 19,6 C 15,3 km/h (3 Bft)
25.08.2013 11:00 22,3 C 55 % 1013,5 hPa 0,0 l/m 9,8 km/h (2 Bft) NO 12,6 C 21,2 C 20,6 km/h (4 Bft)
25.08.2013 12:00 23,2 C 47 % 1013,6 hPa 0,0 l/m 12,4 km/h (2 Bft) O 11,4 C 21,7 C 24,2 km/h (4 Bft)
25.08.2013 13:00 23,6 C 45 % 1013,7 hPa 0,0 l/m 10,6 km/h (2 Bft) O 10,9 C 22,5 C 21,6 km/h (4 Bft)
25.08.2013 14:00 24,2 C 41 % 1013,6 hPa 0,0 l/m 11,7 km/h (2 Bft) O 10,2 C 22,9 C 23,3 km/h (4 Bft)
25.08.2013 15:00 24,5 C 39 % 1013,5 hPa 0,0 l/m 12,2 km/h (2 Bft) O-NO 9,7 C 23,3 C 23,7 km/h (4 Bft)
25.08.2013 16:00 24,3 C 41 % 1013,5 hPa 0,0 l/m 11,6 km/h (2 Bft) NO 10,1 C 23,1 C 21,2 km/h (4 Bft)
25.08.2013 17:00 24,1 C 39 % 1013,7 hPa 0,0 l/m 10,6 km/h (2 Bft) NO 9,4 C 23,1 C 20,4 km/h (4 Bft)
25.08.2013 18:00 23,6 C 40 % 1013,9 hPa 0,0 l/m 9,5 km/h (2 Bft) O-NO 9,2 C 22,8 C 18,4 km/h (3 Bft)
25.08.2013 19:00 22,1 C 43 % 1014,4 hPa 0,0 l/m 6,4 km/h (2 Bft) NO 9,0 C 21,9 C 12,9 km/h (3 Bft)
25.08.2013 20:00 19,7 C 51 % 1014,9 hPa 0,0 l/m 4,0 km/h (1 Bft) NO 9,1 C 19,7 C 7,9 km/h (2 Bft)
25.08.2013 21:00 16,8 C 61 % 1015,4 hPa 0,0 l/m 3,3 km/h (1 Bft) NO 9,2 C 16,8 C 4,9 km/h (1 Bft)
25.08.2013 22:00 16,5 C 63 % 1015,8 hPa 0,0 l/m 5,5 km/h (2 Bft) NO 9,4 C 16,4 C 8,7 km/h (2 Bft)
25.08.2013 23:00 16,2 C 67 % 1016,3 hPa 0,0 l/m 6,5 km/h (2 Bft) NO 10,1 C 16,1 C 11,0 km/h (2 Bft)
Min-Datum _ 21.08.13 25.08.13 19.08.13 - 19.08.13 - 21.08.13 21.08.13 19.08.13
_ Min-Zeit 06:40 15:00 12:10 - 00:05 - 06:40 06:40 00:05
Minimum _ 7,1 C 36 % 1011,8 hPa - 0,0 km/h (0 Bft) - 6,5 C 7,1 C 0,0 km/h (0 Bft)
Max-Datum _ 24.08.13 19.08.13 21.08.13 19.08.13 19.08.13 - 19.08.13 24.08.13 24.08.13
_ Max-Zeit 15:40 12:05 00:55 10:35 19:55 - 13:45 15:40 15:15
Maximum _ 25,2 C 97 % 1028,2 hPa 7,0 l/m 19,6 km/h
N-NO (3 Bft)
- 18,2 C 24,8 C 30,6 km/h
O (5 Bft)
Durchschnitt _ 17,0 C 74 % 1019,4 hPa #16,4 l/m 3,3 km/h (1 Bft) O-NO 11,8 C 16,9 C 7,1 km/h (2 Bft)